• Join FlightAware (Why Join?)
  • Login
  • US Flag 
03:35AM EDT


 

Airport Tracker/Info


-or-


 

Live Flight TrackerFlight Track Log ✈ N143DE ✈ 21-Oct-2013 ✈ KMOB - KPDK

Flight Track Log - Related Links

Times and Time Zones

All times are in EDT time to prevent confusion due to time zone crossing. See the N143DE flight status page for this flight to view local times or setup timezone preferences in your user account.

Time Position Orientation Groundspeed Altitude Reporting Facility
EDT Latitude Longitude Course Direction KTS MPH feet Rate Location/Type
09:18PM 30.6767 -88.1733 45° Northeast 168 193 3,900  Level Houston Center
09:19PM 30.7086 -88.1275 51° Northeast 183 211 5,400 1,380 Climbing Houston Center
09:20PM 30.7486 -88.0836 43° Northeast 197 227 6,800 1,560 Climbing Houston Center
09:21PM 30.8000 -88.0319 41° Northeast 205 236 8,600 1,560 Climbing Houston Center
09:22PM 30.9912 -87.8894 45° Northeast  Level Estimated
09:22PM 30.8436 -87.9881 41° Northeast 208 239 10,100  Level Houston Center
09:23PM 31.0411 -87.8302 45° Northeast  Level Estimated
09:23PM 30.8864 -87.9425 42° Northeast 208 239 11,600  Level Houston Center
09:24PM 30.9297 -87.8992 41° Northeast 207 238 13,000 1,140 Climbing Houston Center
09:25PM 30.9750 -87.8517 42° Northeast 219 252 14,000 1,080 Climbing Houston Center
09:26PM 31.0219 -87.8019 42° Northeast 228 262 15,300 1,260 Climbing Houston Center
09:27PM 31.0678 -87.7511 44° Northeast 229 264 16,600 1,260 Climbing Houston Center
09:28PM 31.1214 -87.6983 40° Northeast 212 244 17,900 1,140 Climbing Houston Center
09:29PM 31.1675 -87.6519 41° Northeast 219 252 19,000 1,020 Climbing Houston Center
09:30PM 31.2158 -87.6014 42° Northeast 231 266 20,000 900 Climbing Houston Center
09:31PM 31.2650 -87.5492 42° Northeast 239 275 20,900 900 Climbing Houston Center
09:32PM 31.3164 -87.4964 41° Northeast 246 283 21,900 900 Climbing Houston Center
09:33PM 31.3683 -87.4436 41° Northeast 248 285 22,800 840 Climbing Houston Center
09:34PM 31.4192 -87.3903 42° Northeast 246 283 23,700 780 Climbing Houston Center
09:35PM 31.4731 -87.3381 40° Northeast 250 288 24,400 660 Climbing Houston Center
09:36PM 31.5164 -87.2714 53° Northeast 258 297 25,100 300 Climbing Houston Center
09:37PM 31.5686 -87.2050 47° Northeast 274 315 25,100  Level Houston Center
09:38PM 31.6367 -87.1161 48° Northeast 302 348 25,100 -60 Level Houston Center
09:39PM 31.6761 -87.0719 44° Northeast 292 336 25,000 -60 Descending Atlanta Center
09:40PM 31.7408 -86.9864 48° Northeast 304 350 25,000  Level Atlanta Center
09:41PM 31.7969 -86.9075 50° Northeast 309 356 25,000  Level Atlanta Center
09:42PM 31.8550 -86.8286 49° Northeast 309 356 25,000  Level Atlanta Center
09:43PM 31.9153 -86.7497 48° Northeast 309 356 25,000  Level Atlanta Center
09:44PM 31.9708 -86.6806 47° Northeast 309 356 25,000  Level Atlanta Center
09:45PM 32.0311 -86.6014 48° Northeast 309 356 25,000  Level Atlanta Center
09:46PM 32.0889 -86.5247 48° Northeast 309 356 25,000  Level Atlanta Center
09:47PM 32.1511 -86.4453 47° Northeast 309 356 25,000  Level Atlanta Center
09:48PM 32.2114 -86.3539 52° Northeast 309 356 25,000  Level Atlanta Center
09:49PM 32.2753 -86.2744 46° Northeast 314 361 25,000  Level Atlanta Center
09:50PM 32.3247 -86.1969 53° Northeast 322 371 25,000  Level Atlanta Center
09:51PM 32.3867 -86.1172 47° Northeast 322 371 25,000 -60 Level Atlanta Center
09:52PM 32.4400 -86.0372 52° Northeast 322 371 24,900 -900 Descending Atlanta Center
09:53PM 32.5042 -85.9525 48° Northeast 327 376 23,200 -1,560 Descending Atlanta Center
09:54PM 32.5744 -85.8603 48° Northeast 347 399 21,800 -1,320 Descending Atlanta Center
09:55PM 32.6339 -85.7753 50° Northeast 347 399 20,600 -1,200 Descending Atlanta Center
09:56PM 32.6956 -85.6925 48° Northeast 341 392 19,400 -1,200 Descending Atlanta Center
09:57PM 32.7553 -85.6097 49° Northeast 336 387 18,200 -1,020 Descending Atlanta Center
09:58PM 32.8167 -85.5269 49° Northeast 330 380 17,400 -720 Descending Atlanta Center
09:59PM 32.8719 -85.4486 50° Northeast 325 374 16,800 -780 Descending Atlanta Center
10:00PM 32.9208 -85.3800 50° Northeast 298 343 15,900 -1,080 Descending Atlanta Center
10:01PM 32.9653 -85.3189 49° Northeast 263 303 14,700 -1,200 Descending Atlanta Center
10:02PM 33.0097 -85.2575 49° Northeast 243 280 13,500 -1,320 Descending Atlanta Center
10:03PM 33.0728 -85.2064 34° Northeast 243 280 12,100 -1,260 Descending Atlanta Center
10:04PM 33.1378 -85.1775 20° North 238 274 11,000 -600 Descending Atlanta Center
10:05PM 33.2069 -85.1586 13° North 246 283 11,000  Level Atlanta Center
10:06PM 33.2758 -85.1444 10° North 252 290 11,000  Level Atlanta Center
10:07PM 33.3408 -85.1231 15° North 259 298 11,000 -240 Level Atlanta Center
10:08PM 33.4139 -85.0989 15° North 259 298 10,600 -660 Descending Atlanta Center
10:09PM 33.4914 -85.0775 13° North 265 305 9,700 -900 Descending Atlanta Center
10:10PM 33.5667 -85.0536 15° North 272 313 8,900 -840 Descending Atlanta Center
10:11PM 33.6422 -85.0294 15° North 277 319 8,100 -780 Descending Atlanta Center
10:12PM 33.7667 -85.0000 11° North 264 304 7,000 -480 Descending Atlanta TRACON
10:13PM 33.8333 -84.9667 23° Northeast 257 296 7,000  Level Atlanta TRACON
10:14PM 33.8667 -84.8833 64° Northeast 262 302 7,000 -360 Level Atlanta TRACON
10:15PM 33.8833 -84.8000 76° East 266 306 6,300 -900 Descending Atlanta TRACON
10:16PM 33.9167 -84.7167 64° Northeast 273 314 5,300 -1,020 Descending Atlanta TRACON
10:17PM 33.9333 -84.6333 76° East 264 304 4,400 -720 Descending Atlanta TRACON
10:18PM 33.9667 -84.5667 59° Northeast 233 268 4,000 -240 Descending Atlanta TRACON
10:19PM 33.9833 -84.4833 76° East 223 257 4,000 -60 Level Atlanta TRACON
10:20PM 33.9833 -84.4333 90° East 220 253 3,900 -540 Descending Atlanta TRACON
10:21PM 34.0000 -84.3500 76° East 206 237 3,000 -480 Descending Atlanta TRACON
10:22PM 34.0167 -84.3000 68° East 186 214 3,000  Level Atlanta TRACON
10:23PM 34.0000 -84.2500 112° Southeast 195 224 3,000 -300 Level Atlanta TRACON
10:24PM 33.9500 -84.2667 195° South 169 194 2,500 -540 Descending Atlanta TRACON
10:25PM 33.9333 -84.2833 220° Southwest 114 131 2,000 -540 Descending Atlanta TRACON
10:27PM 33.8756 -84.3020 163° South  Level Estimated
10:34PM 33.8756 -84.3020 163° South  Level Estimated
10:35PM 33.8756 -84.3020 163° South  Level Estimated